sensor_id;sensor_type;location;lat;lon;timestamp;P1;durP1;ratioP1;P2;durP2;ratioP2
1545;SDS011;766;51.502;9.752;2022-08-03T00:02:18;3.15;;;2.20;;
1545;SDS011;766;51.502;9.752;2022-08-03T00:04:46;6.03;;;2.30;;
1545;SDS011;766;51.502;9.752;2022-08-03T00:07:15;2.88;;;2.10;;
1545;SDS011;766;51.502;9.752;2022-08-03T00:09:45;2.92;;;1.85;;
1545;SDS011;766;51.502;9.752;2022-08-03T00:12:13;2.28;;;2.05;;
1545;SDS011;766;51.502;9.752;2022-08-03T00:14:42;5.22;;;2.22;;
1545;SDS011;766;51.502;9.752;2022-08-03T00:17:11;2.45;;;2.20;;
1545;SDS011;766;51.502;9.752;2022-08-03T00:19:39;2.42;;;2.20;;
1545;SDS011;766;51.502;9.752;2022-08-03T00:22:08;3.35;;;2.30;;
1545;SDS011;766;51.502;9.752;2022-08-03T00:24:37;2.30;;;2.10;;
1545;SDS011;766;51.502;9.752;2022-08-03T00:27:06;4.45;;;2.03;;
1545;SDS011;766;51.502;9.752;2022-08-03T00:29:36;2.33;;;2.13;;
1545;SDS011;766;51.502;9.752;2022-08-03T00:32:24;5.45;;;2.08;;
1545;SDS011;766;51.502;9.752;2022-08-03T00:34:53;3.05;;;2.20;;
1545;SDS011;766;51.502;9.752;2022-08-03T00:37:24;2.75;;;2.28;;
1545;SDS011;766;51.502;9.752;2022-08-03T00:40:07;3.42;;;2.20;;
1545;SDS011;766;51.502;9.752;2022-08-03T00:45:24;2.25;;;2.05;;
1545;SDS011;766;51.502;9.752;2022-08-03T00:47:54;3.95;;;2.25;;
1545;SDS011;766;51.502;9.752;2022-08-03T00:50:23;2.88;;;2.10;;
1545;SDS011;766;51.502;9.752;2022-08-03T00:52:58;2.13;;;1.92;;
1545;SDS011;766;51.502;9.752;2022-08-03T00:55:27;2.35;;;2.13;;
1545;SDS011;766;51.502;9.752;2022-08-03T00:57:59;3.00;;;2.13;;
1545;SDS011;766;51.502;9.752;2022-08-03T01:00:32;4.45;;;2.15;;
1545;SDS011;766;51.502;9.752;2022-08-03T01:03:04;3.83;;;2.03;;
1545;SDS011;766;51.502;9.752;2022-08-03T01:05:37;2.38;;;2.10;;
1545;SDS011;766;51.502;9.752;2022-08-03T01:08:17;2.08;;;1.83;;
1545;SDS011;766;51.502;9.752;2022-08-03T01:10:52;5.72;;;2.15;;
1545;SDS011;766;51.502;9.752;2022-08-03T01:13:33;3.03;;;2.10;;
1545;SDS011;766;51.502;9.752;2022-08-03T01:16:29;2.17;;;1.90;;
1545;SDS011;766;51.502;9.752;2022-08-03T01:19:07;2.47;;;2.03;;
1545;SDS011;766;51.502;9.752;2022-08-03T01:22:01;4.68;;;1.73;;
1545;SDS011;766;51.502;9.752;2022-08-03T01:24:43;2.45;;;2.05;;
1545;SDS011;766;51.502;9.752;2022-08-03T01:27:17;3.70;;;1.88;;
1545;SDS011;766;51.502;9.752;2022-08-03T01:29:53;3.17;;;1.92;;
1545;SDS011;766;51.502;9.752;2022-08-03T01:32:33;3.05;;;2.45;;
1545;SDS011;766;51.502;9.752;2022-08-03T01:35:27;7.50;;;2.30;;
1545;SDS011;766;51.502;9.752;2022-08-03T01:38:04;3.30;;;2.30;;
1545;SDS011;766;51.502;9.752;2022-08-03T01:40:37;2.25;;;1.98;;
1545;SDS011;766;51.502;9.752;2022-08-03T01:43:08;4.97;;;2.20;;
1545;SDS011;766;51.502;9.752;2022-08-03T01:46:03;8.65;;;2.55;;
1545;SDS011;766;51.502;9.752;2022-08-03T01:48:34;4.38;;;2.30;;
1545;SDS011;766;51.502;9.752;2022-08-03T01:51:04;4.47;;;2.65;;
1545;SDS011;766;51.502;9.752;2022-08-03T01:53:34;2.60;;;2.40;;
1545;SDS011;766;51.502;9.752;2022-08-03T01:56:07;4.28;;;2.63;;
1545;SDS011;766;51.502;9.752;2022-08-03T01:58:36;2.78;;;2.20;;
1545;SDS011;766;51.502;9.752;2022-08-03T02:01:08;3.63;;;2.55;;
1545;SDS011;766;51.502;9.752;2022-08-03T02:03:39;2.95;;;2.42;;
1545;SDS011;766;51.502;9.752;2022-08-03T02:06:27;4.90;;;2.83;;
1545;SDS011;766;51.502;9.752;2022-08-03T02:09:19;2.80;;;2.30;;
1545;SDS011;766;51.502;9.752;2022-08-03T02:11:48;3.08;;;2.60;;
1545;SDS011;766;51.502;9.752;2022-08-03T02:14:18;2.67;;;2.47;;
1545;SDS011;766;51.502;9.752;2022-08-03T02:16:51;6.10;;;3.05;;
1545;SDS011;766;51.502;9.752;2022-08-03T02:19:20;4.38;;;2.75;;
1545;SDS011;766;51.502;9.752;2022-08-03T02:21:50;3.38;;;2.58;;
1545;SDS011;766;51.502;9.752;2022-08-03T02:24:26;2.95;;;2.70;;
1545;SDS011;766;51.502;9.752;2022-08-03T02:26:55;2.88;;;2.67;;
1545;SDS011;766;51.502;9.752;2022-08-03T02:29:25;2.53;;;2.33;;
1545;SDS011;766;51.502;9.752;2022-08-03T02:32:08;3.60;;;2.70;;
1545;SDS011;766;51.502;9.752;2022-08-03T02:34:39;5.60;;;2.60;;
1545;SDS011;766;51.502;9.752;2022-08-03T02:37:09;4.00;;;3.17;;
1545;SDS011;766;51.502;9.752;2022-08-03T02:39:40;4.88;;;3.10;;
1545;SDS011;766;51.502;9.752;2022-08-03T02:42:10;3.70;;;2.80;;
1545;SDS011;766;51.502;9.752;2022-08-03T02:44:41;3.33;;;2.70;;
1545;SDS011;766;51.502;9.752;2022-08-03T02:47:15;2.60;;;2.40;;
1545;SDS011;766;51.502;9.752;2022-08-03T02:49:47;3.38;;;3.08;;
1545;SDS011;766;51.502;9.752;2022-08-03T02:52:18;3.20;;;2.90;;
1545;SDS011;766;51.502;9.752;2022-08-03T02:54:51;3.60;;;2.97;;
1545;SDS011;766;51.502;9.752;2022-08-03T02:57:22;3.97;;;2.95;;
1545;SDS011;766;51.502;9.752;2022-08-03T02:59:53;4.05;;;2.72;;
1545;SDS011;766;51.502;9.752;2022-08-03T03:02:25;6.25;;;2.92;;
1545;SDS011;766;51.502;9.752;2022-08-03T03:04:58;3.22;;;2.83;;
1545;SDS011;766;51.502;9.752;2022-08-03T03:07:48;3.85;;;2.35;;
1545;SDS011;766;51.502;9.752;2022-08-03T03:10:20;3.30;;;2.75;;
1545;SDS011;766;51.502;9.752;2022-08-03T03:12:50;2.85;;;2.60;;
1545;SDS011;766;51.502;9.752;2022-08-03T03:15:21;2.63;;;2.42;;
1545;SDS011;766;51.502;9.752;2022-08-03T03:17:53;3.25;;;2.67;;
1545;SDS011;766;51.502;9.752;2022-08-03T03:20:25;3.22;;;2.80;;
1545;SDS011;766;51.502;9.752;2022-08-03T03:22:57;3.40;;;2.92;;
1545;SDS011;766;51.502;9.752;2022-08-03T03:25:27;3.28;;;2.97;;
1545;SDS011;766;51.502;9.752;2022-08-03T03:27:57;3.40;;;3.10;;
1545;SDS011;766;51.502;9.752;2022-08-03T03:30:30;4.47;;;2.60;;
1545;SDS011;766;51.502;9.752;2022-08-03T03:33:01;3.33;;;2.60;;
1545;SDS011;766;51.502;9.752;2022-08-03T03:35:30;3.35;;;2.72;;
1545;SDS011;766;51.502;9.752;2022-08-03T03:38:05;3.63;;;3.13;;
1545;SDS011;766;51.502;9.752;2022-08-03T03:40:34;4.32;;;2.65;;
1545;SDS011;766;51.502;9.752;2022-08-03T03:43:05;5.22;;;2.95;;
1545;SDS011;766;51.502;9.752;2022-08-03T03:45:34;3.83;;;2.95;;
1545;SDS011;766;51.502;9.752;2022-08-03T03:48:05;4.03;;;3.10;;
1545;SDS011;766;51.502;9.752;2022-08-03T03:50:34;4.18;;;2.80;;
1545;SDS011;766;51.502;9.752;2022-08-03T03:53:08;3.58;;;3.28;;
1545;SDS011;766;51.502;9.752;2022-08-03T03:55:37;4.00;;;3.10;;
1545;SDS011;766;51.502;9.752;2022-08-03T03:58:26;4.20;;;2.88;;
1545;SDS011;766;51.502;9.752;2022-08-03T04:00:54;3.17;;;2.65;;
1545;SDS011;766;51.502;9.752;2022-08-03T04:03:24;3.03;;;2.78;;
1545;SDS011;766;51.502;9.752;2022-08-03T04:05:53;2.92;;;2.65;;
1545;SDS011;766;51.502;9.752;2022-08-03T04:08:50;3.67;;;2.60;;
1545;SDS011;766;51.502;9.752;2022-08-03T04:11:37;6.72;;;3.55;;
1545;SDS011;766;51.502;9.752;2022-08-03T04:14:08;3.85;;;2.90;;
1545;SDS011;766;51.502;9.752;2022-08-03T04:16:40;7.35;;;3.20;;
1545;SDS011;766;51.502;9.752;2022-08-03T04:19:14;2.85;;;2.65;;
1545;SDS011;766;51.502;9.752;2022-08-03T04:21:51;4.30;;;2.85;;
1545;SDS011;766;51.502;9.752;2022-08-03T04:24:29;6.45;;;2.90;;
1545;SDS011;766;51.502;9.752;2022-08-03T04:27:01;2.90;;;2.63;;
1545;SDS011;766;51.502;9.752;2022-08-03T04:29:34;3.05;;;2.75;;
1545;SDS011;766;51.502;9.752;2022-08-03T04:32:14;2.97;;;2.63;;
1545;SDS011;766;51.502;9.752;2022-08-03T04:34:46;5.35;;;2.92;;
1545;SDS011;766;51.502;9.752;2022-08-03T04:37:17;5.65;;;2.45;;
1545;SDS011;766;51.502;9.752;2022-08-03T04:39:51;4.25;;;2.38;;
1545;SDS011;766;51.502;9.752;2022-08-03T04:42:23;4.10;;;2.72;;
1545;SDS011;766;51.502;9.752;2022-08-03T04:44:54;5.72;;;3.13;;
1545;SDS011;766;51.502;9.752;2022-08-03T04:47:27;3.08;;;2.78;;
1545;SDS011;766;51.502;9.752;2022-08-03T04:49:59;4.03;;;2.53;;
1545;SDS011;766;51.502;9.752;2022-08-03T04:52:29;4.78;;;2.83;;
1545;SDS011;766;51.502;9.752;2022-08-03T04:55:00;3.20;;;2.83;;
1545;SDS011;766;51.502;9.752;2022-08-03T04:57:29;3.88;;;3.13;;
1545;SDS011;766;51.502;9.752;2022-08-03T04:59:59;9.68;;;3.42;;
1545;SDS011;766;51.502;9.752;2022-08-03T05:02:32;5.82;;;3.50;;
1545;SDS011;766;51.502;9.752;2022-08-03T05:05:04;4.38;;;3.10;;
1545;SDS011;766;51.502;9.752;2022-08-03T05:07:38;3.05;;;2.78;;
1545;SDS011;766;51.502;9.752;2022-08-03T05:10:08;4.60;;;2.95;;
1545;SDS011;766;51.502;9.752;2022-08-03T05:12:42;3.42;;;2.83;;
1545;SDS011;766;51.502;9.752;2022-08-03T05:15:11;6.00;;;3.63;;
1545;SDS011;766;51.502;9.752;2022-08-03T05:17:41;4.05;;;3.65;;
1545;SDS011;766;51.502;9.752;2022-08-03T05:20:12;4.95;;;3.50;;
1545;SDS011;766;51.502;9.752;2022-08-03T05:22:44;3.72;;;3.15;;
1545;SDS011;766;51.502;9.752;2022-08-03T05:25:12;3.10;;;2.80;;
1545;SDS011;766;51.502;9.752;2022-08-03T05:27:44;4.85;;;2.72;;
1545;SDS011;766;51.502;9.752;2022-08-03T05:30:13;8.57;;;3.40;;
1545;SDS011;766;51.502;9.752;2022-08-03T05:33:00;4.88;;;2.40;;
1545;SDS011;766;51.502;9.752;2022-08-03T05:35:30;9.02;;;3.40;;
1545;SDS011;766;51.502;9.752;2022-08-03T05:38:20;5.85;;;3.13;;
1545;SDS011;766;51.502;9.752;2022-08-03T05:40:59;4.25;;;3.30;;
1545;SDS011;766;51.502;9.752;2022-08-03T05:43:48;5.07;;;3.28;;
1545;SDS011;766;51.502;9.752;2022-08-03T05:46:16;3.20;;;2.78;;
1545;SDS011;766;51.502;9.752;2022-08-03T05:48:45;9.98;;;3.10;;
1545;SDS011;766;51.502;9.752;2022-08-03T05:51:15;4.60;;;3.30;;
1545;SDS011;766;51.502;9.752;2022-08-03T05:53:44;6.72;;;2.97;;
1545;SDS011;766;51.502;9.752;2022-08-03T05:56:13;13.25;;;4.35;;
1545;SDS011;766;51.502;9.752;2022-08-03T05:58:45;3.88;;;2.70;;
1545;SDS011;766;51.502;9.752;2022-08-03T06:01:14;3.80;;;2.15;;
1545;SDS011;766;51.502;9.752;2022-08-03T06:03:43;10.07;;;3.72;;
1545;SDS011;766;51.502;9.752;2022-08-03T06:06:12;3.67;;;2.40;;
1545;SDS011;766;51.502;9.752;2022-08-03T06:08:43;3.70;;;2.20;;
1545;SDS011;766;51.502;9.752;2022-08-03T06:11:14;3.38;;;2.17;;
1545;SDS011;766;51.502;9.752;2022-08-03T06:13:43;2.45;;;2.15;;
1545;SDS011;766;51.502;9.752;2022-08-03T06:16:13;7.25;;;2.35;;
1545;SDS011;766;51.502;9.752;2022-08-03T06:18:41;6.82;;;2.47;;
1545;SDS011;766;51.502;9.752;2022-08-03T06:21:11;2.67;;;1.90;;
1545;SDS011;766;51.502;9.752;2022-08-03T06:23:44;2.33;;;2.03;;
1545;SDS011;766;51.502;9.752;2022-08-03T06:26:20;7.20;;;2.00;;
1545;SDS011;766;51.502;9.752;2022-08-03T06:28:49;2.45;;;1.70;;
1545;SDS011;766;51.502;9.752;2022-08-03T06:31:20;4.10;;;2.22;;
1545;SDS011;766;51.502;9.752;2022-08-03T06:33:59;3.80;;;2.13;;
1545;SDS011;766;51.502;9.752;2022-08-03T06:36:51;3.97;;;2.05;;
1545;SDS011;766;51.502;9.752;2022-08-03T06:39:29;2.60;;;1.70;;
1545;SDS011;766;51.502;9.752;2022-08-03T06:41:57;3.78;;;1.70;;
1545;SDS011;766;51.502;9.752;2022-08-03T06:44:25;1.80;;;1.65;;
1545;SDS011;766;51.502;9.752;2022-08-03T06:46:54;1.73;;;1.55;;
1545;SDS011;766;51.502;9.752;2022-08-03T06:49:22;3.15;;;1.77;;
1545;SDS011;766;51.502;9.752;2022-08-03T06:51:51;5.82;;;2.15;;
1545;SDS011;766;51.502;9.752;2022-08-03T06:54:35;5.00;;;1.80;;
1545;SDS011;766;51.502;9.752;2022-08-03T06:57:03;1.92;;;1.40;;
1545;SDS011;766;51.502;9.752;2022-08-03T06:59:33;3.38;;;1.40;;
1545;SDS011;766;51.502;9.752;2022-08-03T07:02:22;1.40;;;1.30;;
1545;SDS011;766;51.502;9.752;2022-08-03T07:04:53;4.35;;;1.50;;
1545;SDS011;766;51.502;9.752;2022-08-03T07:07:23;2.22;;;1.40;;
1545;SDS011;766;51.502;9.752;2022-08-03T07:09:53;3.05;;;1.38;;
1545;SDS011;766;51.502;9.752;2022-08-03T07:12:23;7.75;;;1.52;;
1545;SDS011;766;51.502;9.752;2022-08-03T07:14:53;2.08;;;1.50;;
1545;SDS011;766;51.502;9.752;2022-08-03T07:17:26;2.95;;;1.40;;
1545;SDS011;766;51.502;9.752;2022-08-03T07:19:55;3.17;;;1.40;;
1545;SDS011;766;51.502;9.752;2022-08-03T07:22:23;3.28;;;1.50;;
1545;SDS011;766;51.502;9.752;2022-08-03T07:24:53;3.85;;;1.50;;
1545;SDS011;766;51.502;9.752;2022-08-03T07:27:23;1.60;;;1.42;;
1545;SDS011;766;51.502;9.752;2022-08-03T07:29:52;1.92;;;1.50;;
1545;SDS011;766;51.502;9.752;2022-08-03T07:32:22;1.55;;;1.40;;
1545;SDS011;766;51.502;9.752;2022-08-03T07:34:51;1.50;;;1.40;;
1545;SDS011;766;51.502;9.752;2022-08-03T07:37:26;2.05;;;1.52;;
1545;SDS011;766;51.502;9.752;2022-08-03T07:39:56;2.03;;;1.20;;
1545;SDS011;766;51.502;9.752;2022-08-03T07:42:25;2.10;;;1.50;;
1545;SDS011;766;51.502;9.752;2022-08-03T07:44:55;3.03;;;1.52;;
1545;SDS011;766;51.502;9.752;2022-08-03T07:47:24;3.03;;;1.40;;
1545;SDS011;766;51.502;9.752;2022-08-03T07:50:01;3.88;;;1.25;;
1545;SDS011;766;51.502;9.752;2022-08-03T07:52:31;1.65;;;1.35;;
1545;SDS011;766;51.502;9.752;2022-08-03T07:55:16;3.13;;;1.55;;
1545;SDS011;766;51.502;9.752;2022-08-03T07:57:45;4.80;;;1.63;;
1545;SDS011;766;51.502;9.752;2022-08-03T08:00:16;1.60;;;1.50;;
1545;SDS011;766;51.502;9.752;2022-08-03T08:02:45;7.32;;;1.35;;
1545;SDS011;766;51.502;9.752;2022-08-03T08:05:14;1.60;;;1.50;;
1545;SDS011;766;51.502;9.752;2022-08-03T08:07:43;1.40;;;1.30;;
1545;SDS011;766;51.502;9.752;2022-08-03T08:10:18;3.83;;;1.48;;
1545;SDS011;766;51.502;9.752;2022-08-03T08:12:47;2.55;;;1.48;;
1545;SDS011;766;51.502;9.752;2022-08-03T08:15:16;2.63;;;1.50;;
1545;SDS011;766;51.502;9.752;2022-08-03T08:17:45;2.85;;;1.60;;
1545;SDS011;766;51.502;9.752;2022-08-03T08:20:16;2.13;;;1.52;;
1545;SDS011;766;51.502;9.752;2022-08-03T08:22:56;3.58;;;1.58;;
1545;SDS011;766;51.502;9.752;2022-08-03T08:25:29;1.92;;;1.63;;
1545;SDS011;766;51.502;9.752;2022-08-03T08:27:59;2.92;;;1.30;;
1545;SDS011;766;51.502;9.752;2022-08-03T08:30:49;3.65;;;1.73;;
1545;SDS011;766;51.502;9.752;2022-08-03T08:33:18;1.75;;;1.48;;
1545;SDS011;766;51.502;9.752;2022-08-03T08:35:49;2.78;;;1.90;;
1545;SDS011;766;51.502;9.752;2022-08-03T08:38:19;1.70;;;1.60;;
1545;SDS011;766;51.502;9.752;2022-08-03T08:40:53;1.58;;;1.40;;
1545;SDS011;766;51.502;9.752;2022-08-03T08:43:22;1.63;;;1.50;;
1545;SDS011;766;51.502;9.752;2022-08-03T08:45:51;5.10;;;1.70;;
1545;SDS011;766;51.502;9.752;2022-08-03T08:48:22;3.58;;;1.80;;
1545;SDS011;766;51.502;9.752;2022-08-03T08:50:54;1.73;;;1.38;;
1545;SDS011;766;51.502;9.752;2022-08-03T08:53:27;4.30;;;1.60;;
1545;SDS011;766;51.502;9.752;2022-08-03T08:55:59;3.72;;;1.67;;
1545;SDS011;766;51.502;9.752;2022-08-03T08:58:29;4.30;;;1.60;;
1545;SDS011;766;51.502;9.752;2022-08-03T09:01:04;3.10;;;1.50;;
1545;SDS011;766;51.502;9.752;2022-08-03T09:03:33;2.08;;;1.60;;
1545;SDS011;766;51.502;9.752;2022-08-03T09:06:02;1.60;;;1.50;;
1545;SDS011;766;51.502;9.752;2022-08-03T09:08:31;3.30;;;1.30;;
1545;SDS011;766;51.502;9.752;2022-08-03T09:11:01;2.70;;;1.50;;
1545;SDS011;766;51.502;9.752;2022-08-03T09:13:30;2.08;;;1.58;;
1545;SDS011;766;51.502;9.752;2022-08-03T09:16:10;3.55;;;1.33;;
1545;SDS011;766;51.502;9.752;2022-08-03T09:18:40;4.30;;;1.50;;
1545;SDS011;766;51.502;9.752;2022-08-03T09:21:13;2.00;;;1.63;;
1545;SDS011;766;51.502;9.752;2022-08-03T09:24:01;3.08;;;1.55;;
1545;SDS011;766;51.502;9.752;2022-08-03T09:26:48;3.22;;;1.55;;
1545;SDS011;766;51.502;9.752;2022-08-03T09:29:19;2.45;;;1.50;;
1545;SDS011;766;51.502;9.752;2022-08-03T09:31:49;3.10;;;1.60;;
1545;SDS011;766;51.502;9.752;2022-08-03T09:34:27;2.10;;;1.60;;
1545;SDS011;766;51.502;9.752;2022-08-03T09:36:56;1.95;;;1.27;;
1545;SDS011;766;51.502;9.752;2022-08-03T09:39:25;2.75;;;1.83;;
1545;SDS011;766;51.502;9.752;2022-08-03T09:42:09;1.60;;;1.50;;
1545;SDS011;766;51.502;9.752;2022-08-03T09:44:41;3.03;;;1.70;;
1545;SDS011;766;51.502;9.752;2022-08-03T09:47:12;2.60;;;1.50;;
1545;SDS011;766;51.502;9.752;2022-08-03T09:49:42;2.45;;;1.50;;
1545;SDS011;766;51.502;9.752;2022-08-03T09:52:28;2.75;;;1.60;;
1545;SDS011;766;51.502;9.752;2022-08-03T09:55:15;1.75;;;1.38;;
1545;SDS011;766;51.502;9.752;2022-08-03T09:58:07;2.50;;;1.60;;
1545;SDS011;766;51.502;9.752;2022-08-03T10:00:51;2.10;;;1.70;;
1545;SDS011;766;51.502;9.752;2022-08-03T10:03:21;2.75;;;1.40;;
1545;SDS011;766;51.502;9.752;2022-08-03T10:05:50;2.42;;;1.70;;
1545;SDS011;766;51.502;9.752;2022-08-03T10:08:25;3.78;;;1.63;;
1545;SDS011;766;51.502;9.752;2022-08-03T10:10:53;1.83;;;1.48;;
1545;SDS011;766;51.502;9.752;2022-08-03T10:13:25;3.03;;;1.55;;
1545;SDS011;766;51.502;9.752;2022-08-03T10:15:54;1.75;;;1.55;;
1545;SDS011;766;51.502;9.752;2022-08-03T10:18:42;2.40;;;1.70;;
1545;SDS011;766;51.502;9.752;2022-08-03T10:21:12;2.00;;;1.35;;
1545;SDS011;766;51.502;9.752;2022-08-03T10:23:46;2.90;;;1.60;;
1545;SDS011;766;51.502;9.752;2022-08-03T10:26:15;2.30;;;1.60;;
1545;SDS011;766;51.502;9.752;2022-08-03T10:28:49;2.70;;;1.50;;
1545;SDS011;766;51.502;9.752;2022-08-03T10:31:20;2.40;;;1.60;;
1545;SDS011;766;51.502;9.752;2022-08-03T10:33:51;2.72;;;1.80;;
1545;SDS011;766;51.502;9.752;2022-08-03T10:36:24;1.38;;;1.27;;
1545;SDS011;766;51.502;9.752;2022-08-03T10:38:58;2.55;;;1.40;;
1545;SDS011;766;51.502;9.752;2022-08-03T10:41:41;1.65;;;1.55;;
1545;SDS011;766;51.502;9.752;2022-08-03T10:44:16;3.35;;;1.58;;
1545;SDS011;766;51.502;9.752;2022-08-03T10:46:46;2.22;;;1.67;;
1545;SDS011;766;51.502;9.752;2022-08-03T10:49:16;5.03;;;1.80;;
1545;SDS011;766;51.502;9.752;2022-08-03T10:52:00;2.65;;;1.38;;
1545;SDS011;766;51.502;9.752;2022-08-03T10:54:49;2.28;;;1.45;;
1545;SDS011;766;51.502;9.752;2022-08-03T10:57:43;1.83;;;1.35;;
1545;SDS011;766;51.502;9.752;2022-08-03T11:00:18;2.13;;;1.58;;
1545;SDS011;766;51.502;9.752;2022-08-03T11:03:07;4.43;;;1.67;;
1545;SDS011;766;51.502;9.752;2022-08-03T11:05:40;2.33;;;1.60;;
1545;SDS011;766;51.502;9.752;2022-08-03T11:08:19;3.65;;;1.70;;
1545;SDS011;766;51.502;9.752;2022-08-03T11:11:02;2.58;;;1.40;;
1545;SDS011;766;51.502;9.752;2022-08-03T11:13:55;5.22;;;1.60;;
1545;SDS011;766;51.502;9.752;2022-08-03T11:16:30;2.75;;;1.58;;
1545;SDS011;766;51.502;9.752;2022-08-03T11:19:05;4.57;;;1.52;;
1545;SDS011;766;51.502;9.752;2022-08-03T11:21:54;3.42;;;1.90;;
1545;SDS011;766;51.502;9.752;2022-08-03T11:27:26;4.70;;;1.60;;
1545;SDS011;766;51.502;9.752;2022-08-03T11:29:57;2.80;;;1.67;;
1545;SDS011;766;51.502;9.752;2022-08-03T11:35:29;2.70;;;1.95;;
1545;SDS011;766;51.502;9.752;2022-08-03T11:38:03;1.83;;;1.60;;
1545;SDS011;766;51.502;9.752;2022-08-03T11:40:34;3.90;;;1.50;;
1545;SDS011;766;51.502;9.752;2022-08-03T11:43:04;3.47;;;1.73;;
1545;SDS011;766;51.502;9.752;2022-08-03T11:45:34;1.60;;;1.50;;
1545;SDS011;766;51.502;9.752;2022-08-03T11:48:15;1.60;;;1.50;;
1545;SDS011;766;51.502;9.752;2022-08-03T11:50:43;3.88;;;1.70;;
1545;SDS011;766;51.502;9.752;2022-08-03T11:53:15;3.63;;;1.80;;
1545;SDS011;766;51.502;9.752;2022-08-03T11:55:45;2.22;;;1.70;;
1545;SDS011;766;51.502;9.752;2022-08-03T11:58:16;1.63;;;1.45;;
1545;SDS011;766;51.502;9.752;2022-08-03T12:01:05;3.30;;;1.70;;
1545;SDS011;766;51.502;9.752;2022-08-03T12:03:38;1.77;;;1.63;;
1545;SDS011;766;51.502;9.752;2022-08-03T12:06:07;2.92;;;1.73;;
1545;SDS011;766;51.502;9.752;2022-08-03T12:08:38;4.13;;;1.90;;
1545;SDS011;766;51.502;9.752;2022-08-03T12:11:08;6.25;;;1.80;;
1545;SDS011;766;51.502;9.752;2022-08-03T12:13:38;2.28;;;1.60;;
1545;SDS011;766;51.502;9.752;2022-08-03T12:16:29;3.38;;;1.60;;
1545;SDS011;766;51.502;9.752;2022-08-03T12:19:00;2.25;;;1.73;;
1545;SDS011;766;51.502;9.752;2022-08-03T12:21:30;1.75;;;1.58;;
1545;SDS011;766;51.502;9.752;2022-08-03T12:24:00;2.78;;;1.33;;
1545;SDS011;766;51.502;9.752;2022-08-03T12:26:29;4.47;;;1.60;;
1545;SDS011;766;51.502;9.752;2022-08-03T12:29:25;1.50;;;1.40;;
1545;SDS011;766;51.502;9.752;2022-08-03T12:31:54;5.45;;;1.73;;
1545;SDS011;766;51.502;9.752;2022-08-03T12:34:25;4.18;;;1.40;;
1545;SDS011;766;51.502;9.752;2022-08-03T12:37:13;2.17;;;1.38;;
1545;SDS011;766;51.502;9.752;2022-08-03T12:39:49;4.13;;;1.40;;
1545;SDS011;766;51.502;9.752;2022-08-03T12:42:31;3.15;;;1.60;;
1545;SDS011;766;51.502;9.752;2022-08-03T12:47:52;1.50;;;1.40;;
1545;SDS011;766;51.502;9.752;2022-08-03T12:50:27;2.47;;;1.35;;
1545;SDS011;766;51.502;9.752;2022-08-03T12:52:57;4.60;;;1.60;;
1545;SDS011;766;51.502;9.752;2022-08-03T12:55:27;2.25;;;1.50;;
1545;SDS011;766;51.502;9.752;2022-08-03T12:58:29;1.50;;;1.30;;
1545;SDS011;766;51.502;9.752;2022-08-03T13:01:02;1.73;;;1.63;;
1545;SDS011;766;51.502;9.752;2022-08-03T13:03:39;3.17;;;1.90;;
1545;SDS011;766;51.502;9.752;2022-08-03T13:06:17;5.20;;;1.55;;
1545;SDS011;766;51.502;9.752;2022-08-03T13:08:47;5.18;;;2.08;;
1545;SDS011;766;51.502;9.752;2022-08-03T13:11:18;1.85;;;1.58;;
1545;SDS011;766;51.502;9.752;2022-08-03T13:14:10;1.75;;;1.45;;
1545;SDS011;766;51.502;9.752;2022-08-03T13:16:45;6.10;;;2.28;;
1545;SDS011;766;51.502;9.752;2022-08-03T13:19:15;2.13;;;1.60;;
1545;SDS011;766;51.502;9.752;2022-08-03T13:21:45;2.65;;;1.48;;
1545;SDS011;766;51.502;9.752;2022-08-03T13:24:29;1.60;;;1.50;;
1545;SDS011;766;51.502;9.752;2022-08-03T13:26:59;4.85;;;1.52;;
1545;SDS011;766;51.502;9.752;2022-08-03T13:29:48;1.92;;;1.35;;
1545;SDS011;766;51.502;9.752;2022-08-03T13:32:18;2.22;;;1.42;;
1545;SDS011;766;51.502;9.752;2022-08-03T13:34:47;5.05;;;1.80;;
1545;SDS011;766;51.502;9.752;2022-08-03T13:37:17;2.78;;;1.30;;
1545;SDS011;766;51.502;9.752;2022-08-03T13:39:46;3.78;;;1.30;;
1545;SDS011;766;51.502;9.752;2022-08-03T13:42:25;5.72;;;1.75;;
1545;SDS011;766;51.502;9.752;2022-08-03T13:44:55;2.05;;;1.30;;
1545;SDS011;766;51.502;9.752;2022-08-03T13:47:23;1.45;;;1.35;;
1545;SDS011;766;51.502;9.752;2022-08-03T13:49:52;3.13;;;1.38;;
1545;SDS011;766;51.502;9.752;2022-08-03T13:52:29;2.22;;;1.33;;
1545;SDS011;766;51.502;9.752;2022-08-03T13:54:58;1.77;;;1.48;;
1545;SDS011;766;51.502;9.752;2022-08-03T13:57:27;3.90;;;1.75;;
1545;SDS011;766;51.502;9.752;2022-08-03T14:00:16;1.35;;;1.25;;
1545;SDS011;766;51.502;9.752;2022-08-03T14:02:57;5.32;;;1.55;;
1545;SDS011;766;51.502;9.752;2022-08-03T14:05:38;1.67;;;1.58;;
1545;SDS011;766;51.502;9.752;2022-08-03T14:08:09;3.50;;;1.38;;
1545;SDS011;766;51.502;9.752;2022-08-03T14:10:38;1.60;;;1.50;;
1545;SDS011;766;51.502;9.752;2022-08-03T14:13:09;2.33;;;1.60;;
1545;SDS011;766;51.502;9.752;2022-08-03T14:15:43;2.13;;;1.33;;
1545;SDS011;766;51.502;9.752;2022-08-03T14:18:17;5.40;;;1.48;;
1545;SDS011;766;51.502;9.752;2022-08-03T14:20:59;2.05;;;1.23;;
1545;SDS011;766;51.502;9.752;2022-08-03T14:23:34;3.15;;;1.30;;
1545;SDS011;766;51.502;9.752;2022-08-03T14:26:03;3.28;;;1.67;;
1545;SDS011;766;51.502;9.752;2022-08-03T14:28:32;4.85;;;1.50;;
1545;SDS011;766;51.502;9.752;2022-08-03T14:31:01;2.47;;;1.50;;
1545;SDS011;766;51.502;9.752;2022-08-03T14:33:34;3.90;;;1.50;;
1545;SDS011;766;51.502;9.752;2022-08-03T14:36:02;2.05;;;1.40;;
1545;SDS011;766;51.502;9.752;2022-08-03T14:38:36;3.60;;;1.52;;
1545;SDS011;766;51.502;9.752;2022-08-03T14:41:04;3.35;;;1.88;;
1545;SDS011;766;51.502;9.752;2022-08-03T14:43:37;2.45;;;1.50;;
1545;SDS011;766;51.502;9.752;2022-08-03T14:46:26;3.03;;;1.60;;
1545;SDS011;766;51.502;9.752;2022-08-03T14:48:54;2.95;;;1.40;;
1545;SDS011;766;51.502;9.752;2022-08-03T14:51:44;1.95;;;1.48;;
1545;SDS011;766;51.502;9.752;2022-08-03T14:54:20;2.92;;;1.48;;
1545;SDS011;766;51.502;9.752;2022-08-03T14:56:49;2.78;;;1.38;;
1545;SDS011;766;51.502;9.752;2022-08-03T14:59:17;4.63;;;1.90;;
1545;SDS011;766;51.502;9.752;2022-08-03T15:01:45;1.80;;;1.70;;
1545;SDS011;766;51.502;9.752;2022-08-03T15:04:33;2.83;;;1.92;;
1545;SDS011;766;51.502;9.752;2022-08-03T15:07:01;7.30;;;1.58;;
1545;SDS011;766;51.502;9.752;2022-08-03T15:09:31;1.50;;;1.40;;
1545;SDS011;766;51.502;9.752;2022-08-03T15:12:00;4.57;;;1.58;;
1545;SDS011;766;51.502;9.752;2022-08-03T15:14:28;2.97;;;1.60;;
1545;SDS011;766;51.502;9.752;2022-08-03T15:17:00;3.75;;;1.30;;
1545;SDS011;766;51.502;9.752;2022-08-03T15:19:32;2.60;;;1.88;;
1545;SDS011;766;51.502;9.752;2022-08-03T15:22:22;3.30;;;1.40;;
1545;SDS011;766;51.502;9.752;2022-08-03T15:25:02;4.15;;;1.50;;
1545;SDS011;766;51.502;9.752;2022-08-03T15:27:51;4.00;;;1.90;;
1545;SDS011;766;51.502;9.752;2022-08-03T15:30:30;1.52;;;1.27;;
1545;SDS011;766;51.502;9.752;2022-08-03T15:33:01;2.13;;;1.70;;
1545;SDS011;766;51.502;9.752;2022-08-03T15:35:30;2.50;;;1.50;;
1545;SDS011;766;51.502;9.752;2022-08-03T15:37:59;1.40;;;1.00;;
1545;SDS011;766;51.502;9.752;2022-08-03T15:40:34;3.05;;;1.38;;
1545;SDS011;766;51.502;9.752;2022-08-03T15:43:02;1.45;;;1.35;;
1545;SDS011;766;51.502;9.752;2022-08-03T15:45:31;1.65;;;1.30;;
1545;SDS011;766;51.502;9.752;2022-08-03T15:48:02;1.27;;;1.17;;
1545;SDS011;766;51.502;9.752;2022-08-03T15:50:31;1.98;;;1.35;;
1545;SDS011;766;51.502;9.752;2022-08-03T15:52:59;2.25;;;1.40;;
1545;SDS011;766;51.502;9.752;2022-08-03T15:55:28;1.77;;;1.10;;
1545;SDS011;766;51.502;9.752;2022-08-03T15:57:58;1.60;;;1.50;;
1545;SDS011;766;51.502;9.752;2022-08-03T16:00:46;1.98;;;1.40;;
1545;SDS011;766;51.502;9.752;2022-08-03T16:03:14;1.52;;;1.35;;
1545;SDS011;766;51.502;9.752;2022-08-03T16:05:43;1.80;;;1.60;;
1545;SDS011;766;51.502;9.752;2022-08-03T16:08:11;2.60;;;1.50;;
1545;SDS011;766;51.502;9.752;2022-08-03T16:10:41;4.97;;;1.20;;
1545;SDS011;766;51.502;9.752;2022-08-03T16:13:15;4.90;;;1.70;;
1545;SDS011;766;51.502;9.752;2022-08-03T16:15:43;3.50;;;1.50;;
1545;SDS011;766;51.502;9.752;2022-08-03T16:18:14;4.15;;;1.40;;
1545;SDS011;766;51.502;9.752;2022-08-03T16:20:43;4.18;;;1.67;;
1545;SDS011;766;51.502;9.752;2022-08-03T16:23:12;1.30;;;1.20;;